Roddickton, Canada
Current Conditions -  °F | °C
As of 5:00 AM on Sunday 26 Oct 2014 (Local Time) from CYAY Reporting Station
Overcast Overcast  
Wind Chill: 29°   Ceiling: 2700
Heat Index: 37°   Visibility: 9mi
Dew Point: 32°   Wind: 14mph
Humidity: 81%   Direction: 50°NE
Pressure: 29.72"   Gusts: 21mph
Location:  50.85°N, 56.12°W
Report Text: CYAY 260700Z AUTO 05012G18KT 9SM OVC027 03/00 A2972 RMK SLP066
Loading
Personal Weather Stations






























Interactive Weather Map
Tropical Storm Tracking
New forecast layout! Learn more

10-Day Weather Forecast

Advertisements
Track Severe Weather on mobile